Time;durP1;ratioP1;P1;durP2;ratioP2;P2;SDS_P1;SDS_P2;PMS_P1;PMS_P2;Temp;Humidity;BMP_temperature;BMP_pressure;BME280_temperature;BME280_humidity;BME280_pressure;Samples;Min_cycle;Max_cycle;Signal;HPM_P1;HPM_P2
2022/01/03 00:00:52;;;;;;;3.78;1.42;;;12.60;62.30;;;12.20;52.36;97634.25;5010335;28;20046;-46
2022/01/03 00:03:21;;;;;;;3.28;1.27;;;12.60;62.80;;;12.21;52.89;97612.75;5010843;28;20064;-46
2022/01/03 00:05:49;;;;;;;4.85;1.40;;;12.50;63.10;;;12.16;52.82;97623.09;5010003;28;20053;-47
2022/01/03 00:08:18;;;;;;;3.00;1.00;;;12.50;62.80;;;12.21;53.39;97610.06;5009976;28;20057;-49
2022/01/03 00:10:46;;;;;;;2.08;1.00;;;12.50;63.20;;;12.21;52.66;97602.06;5009191;28;20316;-48
2022/01/03 00:13:15;;;;;;;2.35;1.58;;;12.50;62.90;;;12.16;52.71;97616.94;4993248;28;20060;-49
2022/01/03 00:15:42;;;;;;;2.10;1.20;;;12.50;62.30;;;12.14;52.50;97601.09;5009708;28;20049;-49
2022/01/03 00:18:10;;;;;;;3.97;1.67;;;12.50;61.90;;;12.19;52.78;97590.72;5009411;28;20229;-47
2022/01/03 00:20:40;;;;;;;3.55;1.30;;;12.50;62.70;;;12.19;52.46;97589.88;5010077;28;20221;-47
2022/01/03 00:23:09;;;;;;;3.13;1.33;;;12.50;62.60;;;12.15;52.70;97604.56;5009520;28;20050;-46
2022/01/03 00:25:41;;;;;;;3.00;1.30;;;12.50;62.10;;;12.23;52.58;97598.38;5008606;28;20061;-49
2022/01/03 00:28:35;;;;;;;2.63;1.30;;;12.50;62.50;;;12.20;51.75;97605.72;5010257;28;20057;-46
2022/01/03 00:31:04;;;;;;;3.13;1.67;;;12.50;61.60;;;12.18;52.00;97621.06;5009014;28;20042;-47
2022/01/03 00:33:33;;;;;;;2.28;1.15;;;12.50;61.50;;;12.05;51.33;97603.94;5009975;28;20053;-51
2022/01/03 00:36:04;;;;;;;4.22;1.30;;;12.40;60.20;;;12.10;51.58;97606.94;5009943;28;20057;-46
2022/01/03 00:38:35;;;;;;;2.50;1.25;;;12.40;60.60;;;12.13;51.77;97601.25;5007581;28;20398;-47
2022/01/03 00:41:03;;;;;;;2.63;1.20;;;12.40;61.00;;;12.19;51.42;97588.06;5007818;28;20264;-49
2022/01/03 00:43:32;;;;;;;3.72;1.70;;;12.40;61.00;;;12.11;51.01;97617.41;5009232;28;20355;-50
2022/01/03 00:46:00;;;;;;;7.43;1.48;;;12.40;60.10;;;12.13;51.13;97598.56;5009403;28;20271;-47
2022/01/03 00:48:32;;;;;;;3.60;1.10;;;12.40;60.40;;;12.05;50.59;97619.97;5008710;28;20236;-48
2022/01/03 00:51:03;;;;;;;4.00;1.50;;;12.50;59.20;;;12.03;50.57;97633.47;5026141;28;20050;-48
2022/01/03 00:53:31;;;;;;;5.47;1.17;;;12.40;59.20;;;12.02;50.96;97618.47;5008559;28;20050;-50
2022/01/03 00:56:27;;;;;;;3.92;1.13;;;12.40;59.60;;;12.00;50.72;97610.63;5009071;28;20054;-52
2022/01/03 00:59:11;;;;;;;6.35;1.25;;;12.40;59.80;;;11.99;51.19;97634.81;5009480;28;20345;-50
2022/01/03 01:01:51;;;;;;;4.65;1.38;;;12.40;60.00;;;11.93;51.47;97622.97;4991641;28;20075;-50
2022/01/03 01:04:23;;;;;;;5.53;1.13;;;12.40;60.10;;;11.92;51.57;97634.66;5009204;28;20441;-49
2022/01/03 01:06:58;;;;;;;4.78;1.40;;;12.30;60.40;;;11.95;52.19;97614.81;5008629;28;20053;-50
2022/01/03 01:09:28;;;;;;;3.22;1.23;;;12.30;61.30;;;12.02;51.89;97623.81;5009512;28;20064;-49
2022/01/03 01:11:59;;;;;;;5.88;1.20;;;12.40;61.40;;;12.08;52.23;97612.44;4993282;28;20343;-48
2022/01/03 01:14:36;;;;;;;4.28;1.55;;;12.40;61.90;;;12.00;52.49;97607.97;5008409;28;20352;-49
2022/01/03 01:17:05;;;;;;;3.97;1.45;;;12.30;62.00;;;11.90;52.59;97638.50;5008498;28;20050;-48
2022/01/03 01:19:34;;;;;;;2.97;1.30;;;12.20;62.20;;;11.97;52.54;97623.47;5009606;28;20069;-50
2022/01/03 01:22:03;;;;;;;1.95;1.33;;;12.20;62.30;;;11.89;52.45;97612.81;4992173;28;20068;-52
2022/01/03 01:24:44;;;;;;;3.78;1.30;;;12.20;62.10;;;11.91;52.79;97611.66;5007595;28;20054;-47
2022/01/03 01:30:24;;;;;;;5.30;1.40;;;12.30;62.00;;;11.96;52.46;97625.31;4990624;28;20068;-48
2022/01/03 01:32:58;;;;;;;3.05;1.10;;;12.40;62.10;;;11.97;52.47;97650.16;5006995;28;20374;-48
2022/01/03 01:35:35;;;;;;;4.18;1.73;;;12.30;62.40;;;11.92;52.43;97631.16;5008166;28;20348;-50
2022/01/03 01:38:07;;;;;;;3.70;1.00;;;12.30;62.10;;;11.93;52.57;97628.31;5007760;28;20064;-47
2022/01/03 01:40:47;;;;;;;3.50;1.13;;;12.30;61.90;;;11.99;52.37;97650.81;4991259;28;20084;-49
2022/01/03 01:43:40;;;;;;;3.22;1.25;;;12.40;61.80;;;12.07;52.30;97628.63;5007982;28;20085;-51
2022/01/03 01:46:17;;;;;;;2.83;1.38;;;12.40;61.90;;;12.01;52.26;97632.81;5025703;28;20064;-47
2022/01/03 01:48:49;;;;;;;2.90;1.30;;;12.40;61.90;;;12.09;52.30;97635.44;5005761;28;20054;-50
2022/01/03 01:51:23;;;;;;;5.95;1.70;;;12.40;62.30;;;12.00;52.38;97639.97;5006632;28;20344;-49
2022/01/03 01:53:56;;;;;;;3.08;1.35;;;12.40;61.60;;;12.06;52.68;97630.47;5006041;28;20291;-47
2022/01/03 01:57:06;;;;;;;3.22;1.08;;;12.40;62.00;;;12.03;52.18;97622.78;4992052;28;20062;-49
2022/01/03 02:00:05;;;;;;;5.97;2.15;;;12.40;61.30;;;12.04;51.88;97631.63;5007840;28;20057;-50
2022/01/03 02:03:24;;;;;;;4.15;1.98;;;12.40;61.30;;;11.95;51.80;97626.31;5006885;28;20061;-50
2022/01/03 02:06:22;;;;;;;4.78;1.40;;;12.40;61.00;;;11.85;51.70;97641.66;5007246;28;20061;-49
2022/01/03 02:09:14;;;;;;;3.13;1.15;;;12.30;60.80;;;12.00;51.78;97641.81;5008063;28;20239;-49
2022/01/03 02:11:54;;;;;;;3.03;1.33;;;12.30;61.00;;;12.01;51.93;97636.28;5008981;28;20058;-48
2022/01/03 02:14:35;;;;;;;3.25;1.52;;;12.30;61.40;;;12.04;51.59;97629.81;5007891;28;20056;-48
2022/01/03 02:17:04;;;;;;;3.17;1.25;;;12.40;61.20;;;12.04;52.06;97632.47;5007148;28;20061;-49
2022/01/03 02:19:36;;;;;;;5.20;1.80;;;12.30;61.70;;;12.04;51.75;97631.63;5006992;28;20061;-49
2022/01/03 02:22:05;;;;;;;3.63;1.15;;;12.40;61.30;;;12.07;51.92;97636.63;5005925;28;20247;-48
2022/01/03 02:24:41;;;;;;;4.78;1.63;;;12.30;62.50;;;12.11;52.14;97640.63;5005634;28;20054;-47
2022/01/03 02:27:09;;;;;;;7.03;1.35;;;12.40;61.70;;;12.00;52.15;97645.31;4989513;28;20225;-51
2022/01/03 02:29:37;;;;;;;2.85;1.13;;;12.30;61.90;;;12.09;52.21;97634.63;5006714;28;20048;-50
2022/01/03 02:32:05;;;;;;;6.10;1.20;;;12.30;62.20;;;11.99;52.59;97650.81;5007116;28;20041;-47
2022/01/03 02:34:35;;;;;;;4.88;1.70;;;12.20;62.10;;;12.00;52.33;97647.16;4992212;28;20076;-49
2022/01/03 02:37:03;;;;;;;2.17;1.20;;;12.30;62.20;;;11.98;52.18;97665.16;5007296;28;20364;-48
2022/01/03 02:39:31;;;;;;;5.25;1.27;;;12.30;62.00;;;11.92;52.43;97653.34;5009574;28;20054;-46
2022/01/03 02:41:59;;;;;;;3.53;1.15;;;12.20;61.90;;;11.95;52.79;97658.31;5006943;28;20067;-50
2022/01/03 02:44:27;;;;;;;2.63;1.33;;;12.20;62.20;;;11.96;52.21;97657.34;5007048;28;20275;-48
2022/01/03 02:46:56;;;;;;;3.55;1.13;;;12.20;62.00;;;11.97;52.57;97658.16;5006522;28;20058;-50
2022/01/03 02:49:24;;;;;;;4.30;1.40;;;12.20;62.10;;;11.93;52.04;97646.16;5006129;28;20062;-47
2022/01/03 02:51:52;;;;;;;2.92;1.10;;;12.20;61.60;;;11.96;52.16;97653.81;5008004;28;20052;-48
2022/01/03 02:54:20;;;;;;;4.05;1.20;;;12.20;62.10;;;11.83;52.81;97659.66;5006848;28;20768;-51
2022/01/03 02:56:48;;;;;;;4.93;1.70;;;12.10;62.50;;;11.83;52.61;97670.31;5008214;28;20064;-49
2022/01/03 02:59:21;;;;;;;7.07;2.05;;;12.10;62.60;;;11.70;52.95;97678.81;5006038;28;20060;-47
2022/01/03 03:01:49;;;;;;;5.97;1.17;;;12.00;62.30;;;11.72;52.86;97686.66;5006479;28;20060;-48
2022/01/03 03:04:20;;;;;;;3.78;1.33;;;12.00;62.30;;;11.78;52.55;97672.66;5006399;28;20054;-48
2022/01/03 03:06:49;;;;;;;5.50;1.63;;;12.10;62.40;;;11.64;52.67;97679.50;5006840;28;20068;-47
2022/01/03 03:09:20;;;;;;;3.03;1.33;;;12.00;62.80;;;11.66;52.55;97676.66;5006946;28;20064;-48
2022/01/03 03:11:59;;;;;;;5.00;1.60;;;12.00;61.90;;;11.69;52.65;97677.19;5010241;28;20095;-48
2022/01/03 03:14:26;;;;;;;4.82;1.63;;;12.10;61.90;;;11.74;52.87;97677.47;5011387;28;20049;-47
2022/01/03 03:16:55;;;;;;;2.90;1.25;;;12.10;62.60;;;11.78;52.90;97669.97;5008483;28;20045;-48
2022/01/03 03:19:23;;;;;;;5.07;1.98;;;12.10;62.60;;;11.78;52.75;97675.31;5007032;28;20054;-47
2022/01/03 03:21:51;;;;;;;4.57;1.35;;;12.00;62.60;;;11.79;52.91;97677.00;4991237;28;20340;-49
2022/01/03 03:24:19;;;;;;;4.57;1.40;;;12.00;62.70;;;11.80;52.94;97676.81;4990150;28;20077;-47
2022/01/03 03:26:46;;;;;;;3.17;1.90;;;12.00;62.70;;;11.76;52.75;97686.16;4990865;28;20045;-46
2022/01/03 03:29:15;;;;;;;7.25;2.22;;;12.00;62.70;;;11.74;52.72;97682.00;4989624;28;20050;-48
2022/01/03 03:31:43;;;;;;;5.35;1.92;;;12.00;62.40;;;11.74;52.50;97674.00;4991248;28;20336;-46
2022/01/03 03:34:13;;;;;;;5.40;1.90;;;12.00;62.60;;;11.75;52.71;97673.84;4988433;28;20046;-47
2022/01/03 03:36:41;;;;;;;4.00;1.50;;;12.00;62.60;;;11.74;53.31;97682.00;5022913;28;20054;-48
2022/01/03 03:39:08;;;;;;;5.30;1.83;;;11.90;63.20;;;11.58;53.47;97673.00;4990391;28;20058;-47
2022/01/03 03:41:36;;;;;;;4.93;2.78;;;11.90;63.10;;;11.51;53.82;97680.00;4990298;28;20062;-50
2022/01/03 03:44:04;;;;;;;3.78;1.52;;;11.80;63.50;;;11.53;53.60;97667.31;5005525;28;20073;-46
2022/01/03 03:46:32;;;;;;;5.43;1.70;;;11.80;63.60;;;11.63;53.25;97673.34;4990655;28;20237;-47
2022/01/03 03:49:00;;;;;;;6.82;2.30;;;11.90;63.60;;;11.63;53.53;97681.34;5023371;28;20247;-47
2022/01/03 03:51:29;;;;;;;5.10;2.00;;;11.90;63.40;;;11.67;53.26;97671.19;4991127;28;20452;-47
2022/01/03 03:53:58;;;;;;;5.57;1.85;;;11.90;63.70;;;11.62;53.57;97693.00;4990869;28;20046;-47
2022/01/03 03:56:26;;;;;;;7.28;2.38;;;11.90;63.60;;;11.62;53.62;97668.16;4989602;28;20061;-48
2022/01/03 03:58:54;;;;;;;6.00;2.17;;;11.90;63.60;;;11.56;53.39;97661.66;4989163;28;20083;-49
2022/01/03 04:01:23;;;;;;;4.72;2.50;;;11.80;63.50;;;11.60;53.19;97680.84;5020844;28;20050;-47
2022/01/03 04:03:54;;;;;;;7.20;2.13;;;11.80;63.60;;;11.56;53.60;97668.84;5005867;28;20085;-48
2022/01/03 04:06:23;;;;;;;6.30;2.38;;;11.80;63.90;;;11.55;53.38;97677.81;5022288;28;20064;-48
2022/01/03 04:08:56;;;;;;;5.13;1.50;;;11.80;63.80;;;11.46;53.88;97673.47;5004027;28;20068;-49
2022/01/03 04:11:25;;;;;;;3.45;1.30;;;11.70;64.00;;;11.44;53.86;97668.34;5021754;28;20064;-48
2022/01/03 04:13:54;;;;;;;8.00;2.25;;;11.70;64.00;;;11.48;53.96;97676.84;5021610;28;20089;-47
2022/01/03 04:16:23;;;;;;;7.32;2.53;;;11.70;64.10;;;11.42;53.74;97673.84;5023898;28;20240;-50
2022/01/03 04:18:51;;;;;;;4.15;1.50;;;11.70;64.30;;;11.43;54.20;97670.16;5004314;28;20076;-47
2022/01/03 04:21:20;;;;;;;4.65;1.52;;;11.60;64.70;;;11.43;53.99;97672.00;4972995;28;20065;-48
2022/01/03 04:23:48;;;;;;;3.40;1.30;;;11.60;64.90;;;11.48;54.28;97692.84;4989832;28;20360;-48
2022/01/03 04:26:16;;;;;;;8.25;1.80;;;11.60;65.00;;;11.45;53.91;97693.16;4988860;28;20076;-47
2022/01/03 04:28:44;;;;;;;3.30;1.27;;;11.60;64.50;;;11.42;54.26;97683.66;4990368;28;20053;-48
2022/01/03 04:31:14;;;;;;;3.67;1.90;;;11.60;65.10;;;11.42;54.90;97686.34;5006512;28;20055;-49
2022/01/03 04:33:43;;;;;;;7.57;1.70;;;11.60;66.10;;;11.39;56.29;97710.66;4987705;28;20058;-49
2022/01/03 04:36:11;;;;;;;5.65;1.35;;;11.60;68.60;;;11.37;57.96;97715.31;4988311;28;20362;-47
2022/01/03 04:38:39;;;;;;;7.55;1.55;;;11.60;71.60;;;11.23;59.95;97716.78;5022010;28;20058;-47
2022/01/03 04:41:09;;;;;;;8.13;2.38;;;11.40;75.40;;;10.77;62.76;97730.47;4990569;28;20054;-52
2022/01/03 04:43:39;;;;;;;3.00;1.42;;;11.00;79.30;;;10.50;64.32;97739.47;4989066;28;20244;-48
2022/01/03 04:46:09;;;;;;;4.55;1.52;;;10.60;84.70;;;10.18;65.89;97730.28;4987546;28;20485;-49
2022/01/03 04:48:38;;;;;;;4.47;2.10;;;10.30;91.80;;;10.14;65.10;97734.25;4987147;28;20052;-48
2022/01/03 04:51:09;;;;;;;3.73;1.50;;;10.10;93.90;;;9.83;69.11;97740.03;5021567;28;20046;-48
2022/01/03 04:53:39;;;;;;;5.13;1.47;;;9.80;99.90;;;9.88;66.56;97723.59;4989160;28;20054;-52
2022/01/03 04:56:10;;;;;;;7.00;1.80;;;9.80;99.90;;;9.83;66.94;97737.38;4989351;28;20525;-50
2022/01/03 04:58:40;;;;;;;4.43;1.30;;;9.70;99.90;;;9.82;68.35;97730.34;5021800;28;20054;-47
2022/01/03 05:01:09;;;;;;;5.27;1.87;;;9.80;99.90;;;9.87;66.82;97727.25;4988353;28;20062;-47
2022/01/03 05:03:37;;;;;;;5.40;1.57;;;9.70;99.90;;;9.95;67.17;97734.47;4986469;28;20198;-49
2022/01/03 05:06:05;;;;;;;4.43;1.53;;;9.90;99.90;;;9.97;67.40;97746.59;5003163;28;20054;-47
2022/01/03 05:08:33;;;;;;;6.80;1.90;;;9.90;99.90;;;9.88;67.54;97733.41;5003897;28;20055;-48
2022/01/03 05:11:02;;;;;;;4.67;1.80;;;9.80;99.90;;;9.91;67.72;97741.91;4987795;28;20214;-49
2022/01/03 05:13:31;;;;;;;7.80;2.22;;;9.90;99.90;;;9.99;67.00;97739.31;5020601;28;20058;-50
2022/01/03 05:16:01;;;;;;;4.83;1.57;;;9.90;99.90;;;10.05;66.65;97737.84;4989743;28;20046;-48
2022/01/03 05:18:30;;;;;;;3.13;1.90;;;10.00;99.90;;;10.09;66.87;97725.09;5020378;28;20235;-51
2022/01/03 05:20:58;;;;;;;4.87;1.63;;;10.10;99.90;;;10.13;66.88;97729.91;4987836;28;20062;-50
2022/01/03 05:23:26;;;;;;;7.20;1.70;;;10.10;99.90;;;10.15;67.00;97733.25;5019365;28;20072;-48
2022/01/03 05:25:54;;;;;;;5.03;1.30;;;10.10;99.90;;;10.14;67.10;97728.94;5020337;28;20062;-47
2022/01/03 05:28:22;;;;;;;6.53;2.07;;;10.10;99.90;;;10.16;66.70;97726.97;5020175;28;20095;-48
2022/01/03 05:30:52;;;;;;;4.80;1.80;;;10.10;99.90;;;10.14;66.93;97726.28;5003436;28;20050;-49
2022/01/03 05:33:21;;;;;;;3.83;1.67;;;10.10;99.90;;;10.14;66.63;97726.28;4986010;28;20085;-51
2022/01/03 05:35:49;;;;;;;4.23;1.60;;;10.10;99.90;;;10.19;66.16;97718.66;5003980;28;20064;-46
2022/01/03 05:38:17;;;;;;;4.47;1.50;;;10.20;99.90;;;10.21;66.27;97723.81;4986387;28;20194;-50
2022/01/03 05:40:45;;;;;;;5.10;1.37;;;10.10;99.90;;;10.21;66.88;97724.66;5004511;28;20249;-48
2022/01/03 05:43:14;;;;;;;5.77;1.50;;;10.20;99.90;;;10.23;66.37;97730.63;5004016;28;20050;-52
2022/01/03 05:45:41;;;;;;;5.40;2.13;;;10.20;99.90;;;10.25;66.58;97733.16;5003347;28;20244;-50
2022/01/03 05:48:10;;;;;;;6.27;2.20;;;10.20;99.90;;;10.26;66.60;97742.81;4988567;28;20475;-48
2022/01/03 05:50:38;;;;;;;4.27;1.93;;;10.20;99.90;;;10.25;66.91;97743.78;5002016;28;20058;-48
2022/01/03 05:53:06;;;;;;;3.03;1.87;;;10.20;99.90;;;10.27;66.54;97749.78;5020521;28;20058;-46
2022/01/03 05:55:34;;;;;;;5.73;1.40;;;10.20;99.90;;;10.24;66.61;97748.28;4988416;28;20073;-46
2022/01/03 05:58:03;;;;;;;6.87;1.67;;;10.20;99.90;;;10.23;66.53;97751.94;5003913;28;20052;-48
2022/01/03 06:00:33;;;;;;;5.87;1.53;;;10.20;99.90;;;10.25;66.71;97755.28;4970378;28;20368;-48
2022/01/03 06:03:01;;;;;;;6.03;1.83;;;10.20;99.90;;;10.29;66.54;97758.44;4987847;28;20056;-48
2022/01/03 06:06:19;;;;;;;9.17;1.80;;;10.30;99.90;;;10.28;66.89;97751.47;4987353;28;20054;-47
2022/01/03 06:08:22;;;;;;;8.30;1.87;;;10.30;99.90;;;10.21;66.79;97753.09;4990179;28;20062;-47
2022/01/03 06:10:52;;;;;;;6.33;1.70;;;10.20;99.90;;;10.18;66.66;97754.25;5003398;28;20062;-50
2022/01/03 06:13:27;;;;;;;7.25;2.50;;;10.20;99.90;;;10.21;67.02;97755.75;4986311;28;20249;-50
2022/01/03 06:15:56;;;;;;;9.20;2.17;;;10.20;99.90;;;10.23;66.87;97759.09;5019314;28;20054;-48
2022/01/03 06:18:25;;;;;;;7.67;2.20;;;10.20;99.90;;;10.14;67.40;97750.22;4987359;28;20054;-48
2022/01/03 06:20:58;;;;;;;5.93;2.15;;;10.10;99.90;;;10.09;67.45;97741.88;5004053;28;20072;-51
2022/01/03 06:23:34;;;;;;;3.73;1.37;;;10.10;99.90;;;10.07;66.98;97749.16;5003283;28;20066;-51
2022/01/03 06:26:02;;;;;;;5.50;1.40;;;10.00;99.90;;;10.00;67.20;97732.16;4987120;28;20066;-47
2022/01/03 06:28:47;;;;;;;8.63;2.13;;;10.00;99.90;;;10.02;67.19;97733.69;4985815;28;20076;-48
2022/01/03 06:31:16;;;;;;;7.77;1.70;;;9.90;99.90;;;10.09;66.83;97730.41;5019160;28;20088;-49
2022/01/03 06:33:44;;;;;;;5.27;1.60;;;10.00;99.90;;;10.05;67.16;97735.19;4985748;28;20054;-48
2022/01/03 06:36:13;;;;;;;5.27;1.47;;;9.90;99.90;;;10.07;66.87;97732.38;5019535;28;20244;-46
2022/01/03 06:38:41;;;;;;;6.50;1.90;;;10.00;99.90;;;10.08;66.92;97742.88;5018114;28;20445;-47
2022/01/03 06:41:11;;;;;;;4.37;2.13;;;10.00;99.90;;;10.10;67.01;97740.88;5019276;28;20058;-46
2022/01/03 06:43:39;;;;;;;3.87;2.10;;;10.00;99.90;;;10.11;67.02;97733.75;5018788;28;20058;-47
2022/01/03 06:46:07;;;;;;;4.47;1.90;;;10.00;99.90;;;10.10;66.80;97735.56;5003446;28;20272;-47
2022/01/03 06:48:36;;;;;;;2.17;1.23;;;10.10;99.90;;;10.12;66.70;97740.72;4987370;28;20056;-47
2022/01/03 06:51:04;;;;;;;6.30;2.13;;;10.10;99.90;;;10.17;66.44;97738.44;5020361;28;20049;-48
2022/01/03 06:53:32;;;;;;;5.10;1.90;;;10.10;99.90;;;10.15;66.61;97735.91;5019573;28;20272;-51
2022/01/03 06:56:00;;;;;;;6.43;2.43;;;10.10;99.90;;;10.10;66.71;97743.56;4986568;28;20050;-47
2022/01/03 06:58:31;;;;;;;7.07;2.43;;;10.10;99.90;;;10.07;66.55;97753.66;4985661;28;20418;-47
2022/01/03 07:01:00;;;;;;;9.00;3.37;;;10.00;99.90;;;10.08;67.05;97742.00;4985729;28;20377;-51
2022/01/03 07:03:28;;;;;;;5.37;3.07;;;10.00;99.90;;;10.10;66.69;97742.69;5002125;28;20268;-49
2022/01/03 07:05:56;;;;;;;7.70;2.03;;;10.00;99.90;;;10.15;66.93;97740.41;4986979;28;20073;-51
2022/01/03 07:08:23;;;;;;;5.80;1.90;;;10.00;99.90;;;10.18;66.75;97743.59;4989435;28;20054;-49
2022/01/03 07:10:52;;;;;;;6.47;1.80;;;10.10;99.90;;;10.19;66.80;97747.91;4987356;28;20045;-47
2022/01/03 07:13:25;;;;;;;7.07;1.43;;;10.10;99.90;;;10.18;66.80;97737.44;4985955;28;20064;-51
2022/01/03 07:18:59;;;;;;;6.27;1.40;;;10.00;99.90;;;10.16;66.36;97755.41;4987001;28;20058;-51
2022/01/03 07:21:29;;;;;;;5.67;2.27;;;10.10;99.90;;;10.16;66.93;97752.75;4986402;28;20052;-48
2022/01/03 07:23:57;;;;;;;7.97;2.50;;;10.10;99.90;;;10.16;66.94;97761.53;4986991;28;20058;-47
2022/01/03 07:26:27;;;;;;;6.80;1.87;;;10.10;99.90;;;10.17;66.82;97757.88;4987153;28;20061;-50
2022/01/03 07:28:55;;;;;;;5.90;1.77;;;10.10;99.90;;;10.17;66.44;97751.72;4986811;28;20053;-50
2022/01/03 07:31:23;;;;;;;5.33;1.87;;;10.10;99.90;;;10.10;66.88;97751.53;4986786;28;20360;-52
2022/01/03 07:33:51;;;;;;;3.30;1.40;;;10.10;99.90;;;10.05;67.38;97757.31;4986292;28;20065;-49
2022/01/03 07:36:19;;;;;;;4.77;1.63;;;10.00;99.90;;;10.07;67.13;97751.84;4987142;28;20228;-48
2022/01/03 07:38:48;;;;;;;4.77;2.40;;;10.00;99.90;;;10.01;67.35;97752.47;4986604;28;20307;-50
2022/01/03 07:41:16;;;;;;;5.13;1.97;;;10.00;99.90;;;10.07;67.06;97748.34;4986653;28;20064;-48
2022/01/03 07:43:45;;;;;;;7.30;2.30;;;10.00;99.90;;;10.08;67.22;97742.00;4986778;28;20050;-49
2022/01/03 07:46:13;;;;;;;4.93;2.67;;;10.00;99.90;;;10.13;67.01;97729.09;4986670;28;20056;-48
2022/01/03 07:48:43;;;;;;;9.17;1.90;;;10.00;99.90;;;10.13;67.08;97735.25;4985251;28;20061;-49
2022/01/03 07:51:11;;;;;;;5.70;1.63;;;10.00;99.90;;;10.16;66.88;97734.13;4985971;28;20371;-48
2022/01/03 07:53:42;;;;;;;3.10;1.60;;;10.10;99.90;;;10.17;67.24;97741.09;4986674;28;20108;-50
2022/01/03 07:56:10;;;;;;;4.03;1.93;;;10.10;99.90;;;10.19;66.84;97739.09;4986221;28;20064;-51
2022/01/03 07:58:38;;;;;;;7.23;2.77;;;10.10;99.90;;;10.24;67.11;97742.16;4990534;28;20062;-48
2022/01/03 08:01:06;;;;;;;8.40;4.43;;;10.20;99.90;;;10.19;67.48;97736.44;4989821;28;20058;-50
2022/01/03 08:03:34;;;;;;;9.80;4.63;;;10.10;99.90;;;10.19;67.55;97739.09;4989999;28;20133;-49
2022/01/03 08:06:08;;;;;;;9.63;5.33;;;10.10;99.90;;;10.23;67.63;97740.47;5010189;28;20054;-51
2022/01/03 08:08:38;;;;;;;6.80;2.47;;;10.10;99.90;;;10.23;67.10;97748.44;5028941;28;20057;-50
2022/01/03 08:11:06;;;;;;;6.03;2.60;;;10.10;99.90;;;10.14;67.89;97746.72;5030245;28;20482;-48
2022/01/03 08:13:34;;;;;;;5.07;1.97;;;9.90;99.90;;;10.10;67.81;97732.06;5029846;28;20062;-48
2022/01/03 08:16:02;;;;;;;6.40;2.43;;;9.90;99.90;;;10.13;67.97;97735.25;5028934;28;20053;-49
2022/01/03 08:18:32;;;;;;;8.33;2.27;;;10.00;99.90;;;10.11;68.04;97739.06;5027717;28;20064;-49
2022/01/03 08:21:00;;;;;;;4.50;1.43;;;9.90;99.90;;;10.04;68.07;97730.84;5029029;28;20155;-46
2022/01/03 08:23:30;;;;;;;8.37;2.60;;;9.80;99.90;;;10.02;68.65;97723.06;5028674;28;20073;-50
2022/01/03 08:25:58;;;;;;;4.10;2.17;;;9.80;99.90;;;10.07;68.43;97727.06;5028464;28;20049;-47
2022/01/03 08:28:26;;;;;;;4.67;2.10;;;9.90;99.90;;;10.12;68.27;97727.41;5022752;28;20344;-51
2022/01/03 08:30:54;;;;;;;4.37;2.33;;;9.90;99.90;;;10.16;68.18;97726.97;5016813;28;20045;-48
2022/01/03 08:33:22;;;;;;;6.57;2.37;;;10.00;99.90;;;10.19;68.08;97734.59;5009964;28;20045;-50
2022/01/03 08:35:50;;;;;;;8.23;2.50;;;10.10;99.90;;;10.24;68.51;97740.31;5015186;28;20533;-51
2022/01/03 08:38:17;;;;;;;12.77;2.93;;;10.10;99.90;;;10.28;68.20;97738.16;5007421;28;20045;-47
2022/01/03 08:40:46;;;;;;;5.57;1.97;;;10.10;99.90;;;10.31;68.39;97735.22;5022053;28;20049;-48
2022/01/03 08:43:15;;;;;;;6.50;1.90;;;10.20;99.90;;;10.34;68.42;97734.91;5008615;28;20064;-48
2022/01/03 08:45:42;;;;;;;6.93;1.60;;;10.20;99.90;;;10.37;68.55;97739.06;5008527;28;20140;-48
2022/01/03 08:48:10;;;;;;;5.10;2.17;;;10.20;99.90;;;10.39;68.56;97734.41;5008704;28;20058;-46
2022/01/03 08:50:38;;;;;;;8.83;2.13;;;10.20;99.90;;;10.40;68.42;97734.28;5009077;28;20233;-49
2022/01/03 08:53:07;;;;;;;7.37;2.90;;;10.20;99.90;;;10.42;68.41;97726.97;5007989;28;20252;-47
2022/01/03 08:55:35;;;;;;;7.37;3.00;;;10.20;99.90;;;10.41;68.59;97720.00;5009403;28;20037;-51
2022/01/03 08:58:03;;;;;;;6.73;2.83;;;10.20;99.90;;;10.41;68.22;97720.00;5008604;28;20340;-49
2022/01/03 09:00:30;;;;;;;6.97;2.50;;;10.20;99.90;;;10.43;68.05;97725.97;5013452;28;20059;-48
2022/01/03 09:02:58;;;;;;;7.80;3.30;;;10.20;99.90;;;10.44;68.08;97729.47;5017721;28;20059;-47
2022/01/03 09:05:26;;;;;;;9.30;2.50;;;10.30;99.90;;;10.46;67.90;97727.47;5017541;28;20072;-50
2022/01/03 09:07:54;;;;;;;4.43;1.70;;;10.30;99.90;;;10.44;67.54;97724.97;5017384;28;20371;-49
2022/01/03 09:10:22;;;;;;;4.97;2.07;;;10.30;99.90;;;10.42;67.42;97720.81;5017762;28;20058;-47
2022/01/03 09:12:50;;;;;;;8.50;1.93;;;10.30;99.90;;;10.41;67.91;97720.00;5017885;28;20347;-47
2022/01/03 09:15:18;;;;;;;10.47;3.27;;;10.30;99.90;;;10.43;67.85;97718.00;5016199;28;20380;-46
2022/01/03 09:17:47;;;;;;;5.60;2.00;;;10.40;99.90;;;10.44;67.23;97721.50;5018176;28;20059;-47
2022/01/03 09:20:16;;;;;;;9.97;3.27;;;10.30;99.90;;;10.45;67.53;97712.53;5006951;28;20054;-47
2022/01/03 09:22:47;;;;;;;10.23;3.77;;;10.40;99.90;;;10.47;67.48;97713.19;5007758;28;20252;-47
2022/01/03 09:30:36;;;;;;;6.50;1.87;;;10.50;99.90;;;10.54;66.75;97706.22;5008863;28;20060;-47
2022/01/03 09:33:04;;;;;;;7.30;2.43;;;10.50;99.90;;;10.56;66.54;97706.91;5008521;28;20049;-47
2022/01/03 09:35:32;;;;;;;6.73;2.30;;;10.50;99.90;;;10.60;66.37;97705.63;5007493;28;20058;-46
2022/01/03 09:38:00;;;;;;;6.13;2.07;;;10.50;99.90;;;10.67;66.51;97699.66;5007922;28;20049;-45
2022/01/03 09:40:28;;;;;;;5.05;2.10;;;10.60;99.90;;;10.66;66.69;97700.63;5009128;28;20595;-46
2022/01/03 09:43:00;;;;;;;6.13;1.90;;;10.60;99.90;;;10.69;66.43;97700.31;5007705;28;20659;-45
2022/01/03 09:45:33;;;;;;;5.67;2.40;;;10.60;99.90;;;10.74;66.36;97703.31;5006407;28;20056;-46
2022/01/03 09:48:04;;;;;;;7.60;2.20;;;10.70;99.90;;;10.75;65.93;97699.66;5007232;28;20046;-46
2022/01/03 09:50:33;;;;;;;6.00;3.20;;;10.70;99.90;;;10.78;65.92;97710.84;5007800;28;20056;-46
2022/01/03 09:53:05;;;;;;;13.63;3.10;;;10.70;99.90;;;10.79;65.65;97704.50;5008100;28;20054;-45
2022/01/03 09:55:33;;;;;;;10.23;2.67;;;10.70;99.90;;;10.81;65.99;97710.50;5007614;28;20054;-46
2022/01/03 09:58:01;;;;;;;6.95;2.80;;;10.70;99.90;;;10.82;65.86;97703.38;5006899;28;20053;-46
2022/01/03 10:00:29;;;;;;;4.40;2.83;;;10.70;99.90;;;10.85;65.79;97711.00;5007778;28;20060;-45
2022/01/03 10:02:58;;;;;;;9.73;3.10;;;10.70;99.90;;;10.80;65.78;97706.19;5006868;28;20346;-45
2022/01/03 10:05:27;;;;;;;4.27;1.73;;;10.70;99.90;;;10.83;65.32;97708.50;5007232;28;20052;-46
2022/01/03 10:07:55;;;;;;;8.30;2.37;;;10.70;99.90;;;10.89;65.38;97711.53;5006861;28;20042;-47
2022/01/03 10:10:24;;;;;;;7.50;1.95;;;10.80;99.90;;;10.88;64.84;97708.03;5007311;28;20045;-45
2022/01/03 10:12:52;;;;;;;6.73;1.83;;;10.80;99.90;;;10.87;64.62;97700.19;5007496;28;20041;-47
2022/01/03 10:15:20;;;;;;;4.65;1.52;;;10.80;99.90;;;10.91;64.91;97710.34;5007082;28;20052;-47
2022/01/03 10:17:48;;;;;;;5.50;1.65;;;10.90;99.90;;;10.92;64.43;97701.38;5007236;28;20054;-45
2022/01/03 10:20:16;;;;;;;5.93;1.80;;;10.90;99.90;;;10.97;64.54;97698.22;5005812;28;20564;-47
2022/01/03 10:22:44;;;;;;;4.93;2.42;;;10.90;99.90;;;10.98;64.53;97690.06;5006944;28;20284;-45
2022/01/03 10:25:14;;;;;;;8.10;1.90;;;11.00;99.90;;;10.95;64.29;97686.91;5006671;28;20550;-45
2022/01/03 10:27:56;;;;;;;4.85;1.70;;;10.90;99.90;;;10.97;64.30;97692.91;5006111;28;20088;-48
2022/01/03 10:30:45;;;;;;;4.75;3.30;;;11.00;99.90;;;10.98;63.36;97689.25;5007624;28;20057;-47
2022/01/03 10:33:16;;;;;;;9.18;4.68;;;11.00;98.60;;;11.01;64.56;97691.56;5007212;28;20064;-46
2022/01/03 10:35:51;;;;;;;9.98;4.57;;;10.90;99.90;;;11.01;64.32;97699.56;5006538;28;20056;-48
2022/01/03 10:38:43;;;;;;;6.03;3.75;;;11.00;99.90;;;11.07;64.13;97696.28;5007221;28;20058;-50
2022/01/03 10:41:19;;;;;;;5.47;2.93;;;11.00;99.50;;;11.06;64.16;97691.09;5006182;28;20367;-46
2022/01/03 10:43:56;;;;;;;5.65;2.40;;;11.00;99.80;;;11.06;63.99;97688.44;5006673;28;20060;-50
2022/01/03 10:46:33;;;;;;;7.23;2.77;;;11.00;99.50;;;11.10;63.87;97681.78;5007007;28;20064;-46